sensor_id;sensor_type;location;lat;lon;timestamp;pressure;altitude;pressure_sealevel;temperature;humidity
13015;BME280;6573;57.696;11.950;2022-08-19T00:01:55;101097.84;;;20.12;100.00
13015;BME280;6573;57.696;11.950;2022-08-19T00:04:26;101110.28;;;20.13;100.00
13015;BME280;6573;57.696;11.950;2022-08-19T00:06:55;101106.69;;;20.14;100.00
13015;BME280;6573;57.696;11.950;2022-08-19T00:09:24;101114.00;;;20.09;100.00
13015;BME280;6573;57.696;11.950;2022-08-19T00:11:53;101103.31;;;20.09;100.00
13015;BME280;6573;57.696;11.950;2022-08-19T00:14:24;101105.16;;;20.07;100.00
13015;BME280;6573;57.696;11.950;2022-08-19T00:16:54;101102.97;;;20.18;100.00
13015;BME280;6573;57.696;11.950;2022-08-19T00:19:24;101106.91;;;20.08;100.00
13015;BME280;6573;57.696;11.950;2022-08-19T00:21:52;101103.06;;;20.15;100.00
13015;BME280;6573;57.696;11.950;2022-08-19T00:24:21;101104.41;;;20.03;100.00
13015;BME280;6573;57.696;11.950;2022-08-19T00:26:50;101107.72;;;20.10;100.00
13015;BME280;6573;57.696;11.950;2022-08-19T00:29:20;101108.66;;;20.09;100.00
13015;BME280;6573;57.696;11.950;2022-08-19T00:31:51;101097.97;;;20.09;100.00
13015;BME280;6573;57.696;11.950;2022-08-19T00:34:23;101102.19;;;20.15;100.00
13015;BME280;6573;57.696;11.950;2022-08-19T00:36:54;101092.63;;;20.09;100.00
13015;BME280;6573;57.696;11.950;2022-08-19T00:39:23;101091.94;;;20.04;100.00
13015;BME280;6573;57.696;11.950;2022-08-19T00:41:51;101098.19;;;20.03;100.00
13015;BME280;6573;57.696;11.950;2022-08-19T00:44:22;101099.69;;;20.10;100.00
13015;BME280;6573;57.696;11.950;2022-08-19T00:46:56;101098.19;;;20.03;100.00
13015;BME280;6573;57.696;11.950;2022-08-19T00:49:30;101103.63;;;20.00;100.00
13015;BME280;6573;57.696;11.950;2022-08-19T00:52:02;101107.13;;;20.02;100.00
13015;BME280;6573;57.696;11.950;2022-08-19T00:54:32;101105.38;;;20.01;100.00
13015;BME280;6573;57.696;11.950;2022-08-19T00:57:02;101087.75;;;19.97;100.00
13015;BME280;6573;57.696;11.950;2022-08-19T00:59:35;101100.25;;;19.95;100.00
13015;BME280;6573;57.696;11.950;2022-08-19T01:02:27;101102.22;;;19.90;100.00
13015;BME280;6573;57.696;11.950;2022-08-19T01:04:55;101107.47;;;19.93;100.00
13015;BME280;6573;57.696;11.950;2022-08-19T01:07:24;101117.53;;;19.85;100.00
13015;BME280;6573;57.696;11.950;2022-08-19T01:09:52;101111.50;;;19.80;100.00
13015;BME280;6573;57.696;11.950;2022-08-19T01:12:21;101117.78;;;19.79;100.00
13015;BME280;6573;57.696;11.950;2022-08-19T01:14:51;101109.66;;;19.82;100.00
13015;BME280;6573;57.696;11.950;2022-08-19T01:17:20;101099.09;;;19.79;100.00
13015;BME280;6573;57.696;11.950;2022-08-19T01:19:50;101101.66;;;19.82;100.00
13015;BME280;6573;57.696;11.950;2022-08-19T01:22:26;101107.81;;;19.84;100.00
13015;BME280;6573;57.696;11.950;2022-08-19T01:24:59;101121.09;;;19.85;100.00
13015;BME280;6573;57.696;11.950;2022-08-19T01:27:37;101109.66;;;19.82;100.00
13015;BME280;6573;57.696;11.950;2022-08-19T01:30:11;101106.06;;;19.83;100.00
13015;BME280;6573;57.696;11.950;2022-08-19T01:32:41;101098.84;;;19.85;100.00
13015;BME280;6573;57.696;11.950;2022-08-19T01:35:11;101097.03;;;19.87;100.00
13015;BME280;6573;57.696;11.950;2022-08-19T01:37:48;101093.50;;;19.85;100.00
13015;BME280;6573;57.696;11.950;2022-08-19T01:40:18;101094.72;;;20.01;100.00
13015;BME280;6573;57.696;11.950;2022-08-19T01:42:47;101094.59;;;20.04;100.00
13015;BME280;6573;57.696;11.950;2022-08-19T01:45:16;101091.34;;;19.96;100.00
13015;BME280;6573;57.696;11.950;2022-08-19T01:47:45;101105.59;;;19.95;100.00
13015;BME280;6573;57.696;11.950;2022-08-19T01:50:26;101106.16;;;19.80;100.00
13015;BME280;6573;57.696;11.950;2022-08-19T01:52:57;101095.94;;;19.68;100.00
13015;BME280;6573;57.696;11.950;2022-08-19T01:55:33;101102.91;;;19.72;100.00
13015;BME280;6573;57.696;11.950;2022-08-19T01:58:11;101106.50;;;19.71;100.00
13015;BME280;6573;57.696;11.950;2022-08-19T02:00:40;101110.09;;;19.70;100.00
13015;BME280;6573;57.696;11.950;2022-08-19T02:03:09;101097.13;;;19.84;100.00
13015;BME280;6573;57.696;11.950;2022-08-19T02:05:38;101097.25;;;19.81;100.00
13015;BME280;6573;57.696;11.950;2022-08-19T02:08:10;101085.16;;;19.71;100.00
13015;BME280;6573;57.696;11.950;2022-08-19T02:10:40;101097.56;;;19.72;100.00
13015;BME280;6573;57.696;11.950;2022-08-19T02:13:08;101092.25;;;19.72;100.00
13015;BME280;6573;57.696;11.950;2022-08-19T02:15:40;101103.03;;;19.69;100.00
13015;BME280;6573;57.696;11.950;2022-08-19T02:18:08;101108.47;;;19.66;100.00
13015;BME280;6573;57.696;11.950;2022-08-19T02:20:38;101101.50;;;19.62;100.00
13015;BME280;6573;57.696;11.950;2022-08-19T02:23:09;101107.66;;;19.64;100.00
13015;BME280;6573;57.696;11.950;2022-08-19T02:25:42;101113.59;;;19.72;100.00
13015;BME280;6573;57.696;11.950;2022-08-19T02:28:11;101099.19;;;19.76;100.00
13015;BME280;6573;57.696;11.950;2022-08-19T02:30:45;101100.81;;;19.80;100.00
13015;BME280;6573;57.696;11.950;2022-08-19T02:33:16;101104.53;;;19.76;100.00
13015;BME280;6573;57.696;11.950;2022-08-19T02:35:45;101105.84;;;19.89;100.00
13015;BME280;6573;57.696;11.950;2022-08-19T02:38:16;101109.78;;;19.79;100.00
13015;BME280;6573;57.696;11.950;2022-08-19T02:40:54;101097.56;;;19.72;100.00
13015;BME280;6573;57.696;11.950;2022-08-19T02:43:23;101094.66;;;19.78;100.00
13015;BME280;6573;57.696;11.950;2022-08-19T02:45:53;101092.09;;;19.75;100.00
13015;BME280;6573;57.696;11.950;2022-08-19T02:48:23;101097.13;;;19.84;100.00
13015;BME280;6573;57.696;11.950;2022-08-19T02:50:52;101102.47;;;19.84;100.00
13015;BME280;6573;57.696;11.950;2022-08-19T02:53:27;101083.81;;;19.82;100.00
13015;BME280;6573;57.696;11.950;2022-08-19T02:55:55;101101.31;;;19.91;100.00
13015;BME280;6573;57.696;11.950;2022-08-19T02:58:24;101089.00;;;19.87;100.00
13015;BME280;6573;57.696;11.950;2022-08-19T03:00:55;101096.88;;;19.90;100.00
13015;BME280;6573;57.696;11.950;2022-08-19T03:03:23;101091.53;;;19.90;100.00
13015;BME280;6573;57.696;11.950;2022-08-19T03:06:01;101096.78;;;19.93;100.00
13015;BME280;6573;57.696;11.950;2022-08-19T03:08:31;101088.31;;;19.82;100.00
13015;BME280;6573;57.696;11.950;2022-08-19T03:11:00;101094.91;;;19.95;100.00
13015;BME280;6573;57.696;11.950;2022-08-19T03:13:28;101091.78;;;19.84;100.00
13015;BME280;6573;57.696;11.950;2022-08-19T03:15:56;101100.53;;;19.87;100.00
13015;BME280;6573;57.696;11.950;2022-08-19T03:18:25;101100.41;;;19.92;100.00
13015;BME280;6573;57.696;11.950;2022-08-19T03:20:53;101079.16;;;19.89;100.00
13015;BME280;6573;57.696;11.950;2022-08-19T03:23:23;101093.41;;;19.88;100.00
13015;BME280;6573;57.696;11.950;2022-08-19T03:25:53;101072.28;;;19.82;100.00
13015;BME280;6573;57.696;11.950;2022-08-19T03:28:41;101077.84;;;19.76;100.00
13015;BME280;6573;57.696;11.950;2022-08-19T03:31:20;101086.84;;;19.73;100.00
13015;BME280;6573;57.696;11.950;2022-08-19T03:34:10;101088.41;;;19.79;100.00
13015;BME280;6573;57.696;11.950;2022-08-19T03:36:39;101077.63;;;19.82;100.00
13015;BME280;6573;57.696;11.950;2022-08-19T03:39:09;101072.41;;;19.79;100.00
13015;BME280;6573;57.696;11.950;2022-08-19T03:41:41;101067.06;;;19.79;100.00
13015;BME280;6573;57.696;11.950;2022-08-19T03:44:13;101071.31;;;19.84;100.00
13015;BME280;6573;57.696;11.950;2022-08-19T03:46:45;101075.00;;;19.80;100.00
13015;BME280;6573;57.696;11.950;2022-08-19T03:49:15;101074.47;;;19.71;100.00
13015;BME280;6573;57.696;11.950;2022-08-19T03:51:46;101081.22;;;19.81;100.00
13015;BME280;6573;57.696;11.950;2022-08-19T03:54:19;101082.41;;;19.72;100.00
13015;BME280;6573;57.696;11.950;2022-08-19T03:56:50;101066.00;;;19.60;100.00
13015;BME280;6573;57.696;11.950;2022-08-19T03:59:21;101076.53;;;19.63;100.00
13015;BME280;6573;57.696;11.950;2022-08-19T04:01:52;101083.28;;;19.73;100.00
13015;BME280;6573;57.696;11.950;2022-08-19T04:04:21;101088.63;;;19.73;100.00
13015;BME280;6573;57.696;11.950;2022-08-19T04:06:49;101083.38;;;19.70;100.00
13015;BME280;6573;57.696;11.950;2022-08-19T04:09:19;101082.66;;;19.66;100.00
13015;BME280;6573;57.696;11.950;2022-08-19T04:11:51;101087.44;;;19.57;100.00
13015;BME280;6573;57.696;11.950;2022-08-19T04:14:24;101085.59;;;19.59;100.00
13015;BME280;6573;57.696;11.950;2022-08-19T04:16:53;101080.16;;;19.62;100.00
13015;BME280;6573;57.696;11.950;2022-08-19T04:19:21;101073.16;;;19.58;100.00
13015;BME280;6573;57.696;11.950;2022-08-19T04:21:54;101077.13;;;19.71;100.00
13015;BME280;6573;57.696;11.950;2022-08-19T04:24:23;101087.00;;;19.69;100.00
13015;BME280;6573;57.696;11.950;2022-08-19T04:26:53;101083.63;;;19.64;100.00
13015;BME280;6573;57.696;11.950;2022-08-19T04:29:23;101078.81;;;19.49;100.00
13015;BME280;6573;57.696;11.950;2022-08-19T04:31:55;101089.31;;;19.55;100.00
13015;BME280;6573;57.696;11.950;2022-08-19T04:34:26;101083.97;;;19.55;100.00
13015;BME280;6573;57.696;11.950;2022-08-19T04:36:57;101084.06;;;19.52;100.00
13015;BME280;6573;57.696;11.950;2022-08-19T04:39:29;101087.44;;;19.57;100.00
13015;BME280;6573;57.696;11.950;2022-08-19T04:42:14;101091.03;;;19.56;100.00
13015;BME280;6573;57.696;11.950;2022-08-19T04:45:00;101088.53;;;19.51;100.00
13015;BME280;6573;57.696;11.950;2022-08-19T04:47:34;101089.41;;;19.52;100.00
13015;BME280;6573;57.696;11.950;2022-08-19T04:50:23;101085.78;;;19.53;100.00
13015;BME280;6573;57.696;11.950;2022-08-19T04:52:51;101080.34;;;19.56;100.00
13015;BME280;6573;57.696;11.950;2022-08-19T04:55:20;101082.22;;;19.54;100.00
13015;BME280;6573;57.696;11.950;2022-08-19T04:57:50;101082.22;;;19.54;100.00
13015;BME280;6573;57.696;11.950;2022-08-19T05:00:19;101091.63;;;19.64;100.00
13015;BME280;6573;57.696;11.950;2022-08-19T05:02:47;101099.84;;;19.58;100.00
13015;BME280;6573;57.696;11.950;2022-08-19T05:05:16;101094.31;;;19.64;100.00
13015;BME280;6573;57.696;11.950;2022-08-19T05:07:45;101062.72;;;19.52;100.00
13015;BME280;6573;57.696;11.950;2022-08-19T05:10:13;101095.63;;;19.77;100.00
13015;BME280;6573;57.696;11.950;2022-08-19T05:12:42;101107.38;;;19.71;100.00
13015;BME280;6573;57.696;11.950;2022-08-19T05:15:12;101095.38;;;19.58;100.00
13015;BME280;6573;57.696;11.950;2022-08-19T05:17:41;101087.66;;;19.51;100.00
13015;BME280;6573;57.696;11.950;2022-08-19T05:20:32;101101.25;;;19.68;100.00
13015;BME280;6573;57.696;11.950;2022-08-19T05:23:17;101069.69;;;19.56;100.00
13015;BME280;6573;57.696;11.950;2022-08-19T05:25:49;101090.38;;;19.74;100.00
13015;BME280;6573;57.696;11.950;2022-08-19T05:28:18;101097.34;;;19.78;100.00
13015;BME280;6573;57.696;11.950;2022-08-19T05:30:49;101094.41;;;19.85;100.00
13015;BME280;6573;57.696;11.950;2022-08-19T05:33:18;101097.66;;;19.93;100.00
13015;BME280;6573;57.696;11.950;2022-08-19T05:35:46;101088.06;;;19.88;100.00
13015;BME280;6573;57.696;11.950;2022-08-19T05:38:15;101088.34;;;19.80;100.00
13015;BME280;6573;57.696;11.950;2022-08-19T05:40:44;101096.88;;;19.90;100.00
13015;BME280;6573;57.696;11.950;2022-08-19T05:43:16;101101.41;;;19.88;100.00
13015;BME280;6573;57.696;11.950;2022-08-19T05:45:44;101097.25;;;19.81;100.00
13015;BME280;6573;57.696;11.950;2022-08-19T05:48:14;101106.16;;;19.80;100.00
13015;BME280;6573;57.696;11.950;2022-08-19T05:54:26;101127.50;;;19.80;100.00
13015;BME280;6573;57.696;11.950;2022-08-19T05:56:54;101109.97;;;19.73;100.00
13015;BME280;6573;57.696;11.950;2022-08-19T05:59:22;101106.16;;;19.80;100.00
13015;BME280;6573;57.696;11.950;2022-08-19T06:01:52;101092.81;;;19.80;100.00
13015;BME280;6573;57.696;11.950;2022-08-19T06:04:22;101096.56;;;19.99;100.00
13015;BME280;6573;57.696;11.950;2022-08-19T06:06:52;101102.09;;;19.94;100.00
13015;BME280;6573;57.696;11.950;2022-08-19T06:09:21;101103.97;;;19.91;100.00
13015;BME280;6573;57.696;11.950;2022-08-19T06:11:51;101107.34;;;19.96;100.00
13015;BME280;6573;57.696;11.950;2022-08-19T06:14:23;101105.84;;;19.89;100.00
13015;BME280;6573;57.696;11.950;2022-08-19T06:16:53;101096.78;;;19.93;100.00
13015;BME280;6573;57.696;11.950;2022-08-19T06:19:24;101099.09;;;19.79;100.00
13015;BME280;6573;57.696;11.950;2022-08-19T06:21:53;101100.41;;;19.92;100.00
13015;BME280;6573;57.696;11.950;2022-08-19T06:24:23;101099.25;;;19.99;100.00
13015;BME280;6573;57.696;11.950;2022-08-19T06:26:53;101076.81;;;20.03;100.00
13015;BME280;6573;57.696;11.950;2022-08-19T06:29:27;101086.06;;;20.18;100.00
13015;BME280;6573;57.696;11.950;2022-08-19T06:31:58;101079.66;;;20.23;100.00
13015;BME280;6573;57.696;11.950;2022-08-19T06:34:30;101073.22;;;20.29;100.00
13015;BME280;6573;57.696;11.950;2022-08-19T06:36:59;101073.75;;;20.37;100.00
13015;BME280;6573;57.696;11.950;2022-08-19T06:39:32;101076.13;;;20.21;100.00
13015;BME280;6573;57.696;11.950;2022-08-19T06:42:02;101078.72;;;20.24;100.00
13015;BME280;6573;57.696;11.950;2022-08-19T06:44:36;101085.81;;;20.25;100.00
13015;BME280;6573;57.696;11.950;2022-08-19T06:47:11;101073.09;;;20.32;100.00
13015;BME280;6573;57.696;11.950;2022-08-19T06:49:54;101049.53;;;20.18;100.00
13015;BME280;6573;57.696;11.950;2022-08-19T06:52:27;101082.44;;;20.43;100.00
13015;BME280;6573;57.696;11.950;2022-08-19T06:54:55;101084.72;;;20.52;100.00
13015;BME280;6573;57.696;11.950;2022-08-19T06:57:26;101085.53;;;20.54;100.00
13015;BME280;6573;57.696;11.950;2022-08-19T06:59:55;101083.69;;;20.56;100.00
13015;BME280;6573;57.696;11.950;2022-08-19T07:02:23;101087.78;;;20.65;100.00
13015;BME280;6573;57.696;11.950;2022-08-19T07:04:54;101092.91;;;20.71;100.00
13015;BME280;6573;57.696;11.950;2022-08-19T07:07:24;101103.97;;;20.84;100.00
13015;BME280;6573;57.696;11.950;2022-08-19T07:09:53;101107.19;;;20.92;100.00
13015;BME280;6573;57.696;11.950;2022-08-19T07:12:27;101107.47;;;20.86;100.00
13015;BME280;6573;57.696;11.950;2022-08-19T07:14:57;101110.94;;;20.88;100.00
13015;BME280;6573;57.696;11.950;2022-08-19T07:17:26;101109.88;;;20.92;100.00
13015;BME280;6573;57.696;11.950;2022-08-19T07:19:56;101105.69;;;20.85;100.00
13015;BME280;6573;57.696;11.950;2022-08-19T07:22:31;101111.31;;;20.79;100.00
13015;BME280;6573;57.696;11.950;2022-08-19T07:25:00;101120.25;;;20.78;100.00
13015;BME280;6573;57.696;11.950;2022-08-19T07:27:30;101114.91;;;20.78;100.00
13015;BME280;6573;57.696;11.950;2022-08-19T07:29:59;101118.50;;;20.77;100.00
13015;BME280;6573;57.696;11.950;2022-08-19T07:32:28;101118.75;;;20.71;100.00
13015;BME280;6573;57.696;11.950;2022-08-19T07:34:59;101123.84;;;20.77;100.00
13015;BME280;6573;57.696;11.950;2022-08-19T07:37:30;101120.75;;;20.87;100.00
13015;BME280;6573;57.696;11.950;2022-08-19T07:39:59;101120.94;;;21.06;100.00
13015;BME280;6573;57.696;11.950;2022-08-19T07:42:28;101118.25;;;21.04;100.00
13015;BME280;6573;57.696;11.950;2022-08-19T07:44:57;101118.09;;;21.09;100.00
13015;BME280;6573;57.696;11.950;2022-08-19T07:47:26;101127.25;;;21.03;100.00
13015;BME280;6573;57.696;11.950;2022-08-19T07:50:17;101132.72;;;21.00;100.00
13015;BME280;6573;57.696;11.950;2022-08-19T07:52:46;101119.06;;;21.08;100.00
13015;BME280;6573;57.696;11.950;2022-08-19T07:55:18;101118.81;;;21.34;100.00
13015;BME280;6573;57.696;11.950;2022-08-19T07:58:08;101120.84;;;21.49;100.00
13015;BME280;6573;57.696;11.950;2022-08-19T08:00:36;101127.84;;;21.53;100.00
13015;BME280;6573;57.696;11.950;2022-08-19T08:03:04;101136.53;;;21.58;100.00
13015;BME280;6573;57.696;11.950;2022-08-19T08:05:34;101140.94;;;21.59;100.00
13015;BME280;6573;57.696;11.950;2022-08-19T08:08:20;101121.53;;;21.74;100.00
13015;BME280;6573;57.696;11.950;2022-08-19T08:11:15;101132.25;;;21.74;100.00
13015;BME280;6573;57.696;11.950;2022-08-19T08:13:46;101135.72;;;21.76;100.00
13015;BME280;6573;57.696;11.950;2022-08-19T08:16:30;101135.06;;;21.91;100.00
13015;BME280;6573;57.696;11.950;2022-08-19T08:19:00;101139.50;;;22.13;100.00
13015;BME280;6573;57.696;11.950;2022-08-19T08:21:34;101131.50;;;22.11;100.00
13015;BME280;6573;57.696;11.950;2022-08-19T08:24:03;101133.97;;;22.16;100.00
13015;BME280;6573;57.696;11.950;2022-08-19T08:26:31;101130.50;;;22.52;100.00
13015;BME280;6573;57.696;11.950;2022-08-19T08:29:00;101125.50;;;22.82;100.00
13015;BME280;6573;57.696;11.950;2022-08-19T08:31:39;101123.03;;;23.13;100.00
13015;BME280;6573;57.696;11.950;2022-08-19T08:34:08;101127.22;;;23.55;100.00
13015;BME280;6573;57.696;11.950;2022-08-19T08:36:39;101129.13;;;23.53;100.00
13015;BME280;6573;57.696;11.950;2022-08-19T08:39:09;101121.84;;;23.55;100.00
13015;BME280;6573;57.696;11.950;2022-08-19T08:41:42;101115.38;;;23.42;100.00
13015;BME280;6573;57.696;11.950;2022-08-19T08:44:16;101114.91;;;23.51;100.00
13015;BME280;6573;57.696;11.950;2022-08-19T08:46:49;101117.09;;;23.77;100.00
13015;BME280;6573;57.696;11.950;2022-08-19T08:49:41;101125.78;;;23.82;100.00
13015;BME280;6573;57.696;11.950;2022-08-19T08:52:18;101133.78;;;23.83;100.00
13015;BME280;6573;57.696;11.950;2022-08-19T08:54:52;101122.16;;;23.83;100.00
13015;BME280;6573;57.696;11.950;2022-08-19T08:57:27;101135.25;;;23.72;100.00
13015;BME280;6573;57.696;11.950;2022-08-19T09:00:09;101126.56;;;23.67;100.00
13015;BME280;6573;57.696;11.950;2022-08-19T09:02:41;101137.34;;;23.84;100.00
13015;BME280;6573;57.696;11.950;2022-08-19T09:05:10;101137.75;;;23.76;100.00
13015;BME280;6573;57.696;11.950;2022-08-19T09:07:51;101148.06;;;23.67;100.00
13015;BME280;6573;57.696;11.950;2022-08-19T09:10:29;101152.34;;;23.71;100.00
13015;BME280;6573;57.696;11.950;2022-08-19T09:13:10;101155.81;;;23.90;100.00
13015;BME280;6573;57.696;11.950;2022-08-19T09:15:42;101126.41;;;23.87;100.00
13015;BME280;6573;57.696;11.950;2022-08-19T09:18:13;101144.91;;;23.93;100.00
13015;BME280;6573;57.696;11.950;2022-08-19T09:20:45;101151.56;;;23.69;100.00
13015;BME280;6573;57.696;11.950;2022-08-19T09:23:16;101156.44;;;23.44;100.00
13015;BME280;6573;57.696;11.950;2022-08-19T09:25:52;101149.31;;;23.43;100.00
13015;BME280;6573;57.696;11.950;2022-08-19T09:28:20;101164.13;;;23.51;100.00
13015;BME280;6573;57.696;11.950;2022-08-19T09:30:53;101156.44;;;23.44;100.00
13015;BME280;6573;57.696;11.950;2022-08-19T09:33:21;101162.59;;;23.46;100.00
13015;BME280;6573;57.696;11.950;2022-08-19T09:35:49;101170.19;;;23.55;100.00
13015;BME280;6573;57.696;11.950;2022-08-19T09:38:21;101158.16;;;23.45;100.00
13015;BME280;6573;57.696;11.950;2022-08-19T09:40:49;101159.28;;;23.58;100.00
13015;BME280;6573;57.696;11.950;2022-08-19T09:43:17;101156.59;;;23.58;100.00
13015;BME280;6573;57.696;11.950;2022-08-19T09:45:59;101153.44;;;23.67;100.00
13015;BME280;6573;57.696;11.950;2022-08-19T09:48:28;101148.50;;;23.76;100.00
13015;BME280;6573;57.696;11.950;2022-08-19T09:51:02;101153.63;;;23.81;100.00
13015;BME280;6573;57.696;11.950;2022-08-19T09:53:32;101150.44;;;23.90;100.00
13015;BME280;6573;57.696;11.950;2022-08-19T09:56:04;101150.59;;;23.87;100.00
13015;BME280;6573;57.696;11.950;2022-08-19T09:58:35;101154.25;;;23.86;100.00
13015;BME280;6573;57.696;11.950;2022-08-19T10:01:05;101152.66;;;23.82;100.00
13015;BME280;6573;57.696;11.950;2022-08-19T10:03:35;101156.31;;;23.81;100.00
13015;BME280;6573;57.696;11.950;2022-08-19T10:06:05;101163.09;;;23.88;100.00
13015;BME280;6573;57.696;11.950;2022-08-19T10:08:45;101158.97;;;23.98;100.00
13015;BME280;6573;57.696;11.950;2022-08-19T10:11:17;101166.72;;;23.87;100.00
13015;BME280;6573;57.696;11.950;2022-08-19T10:14:02;101159.94;;;23.80;100.00
13015;BME280;6573;57.696;11.950;2022-08-19T10:16:33;101156.31;;;23.81;100.00
13015;BME280;6573;57.696;11.950;2022-08-19T10:19:05;101154.06;;;23.89;100.00
13015;BME280;6573;57.696;11.950;2022-08-19T10:21:33;101151.84;;;23.97;100.00
13015;BME280;6573;57.696;11.950;2022-08-19T10:24:05;101146.16;;;24.03;100.00
13015;BME280;6573;57.696;11.950;2022-08-19T10:26:37;101149.94;;;23.99;100.00
13015;BME280;6573;57.696;11.950;2022-08-19T10:29:08;101152.88;;;23.95;100.00
13015;BME280;6573;57.696;11.950;2022-08-19T10:31:36;101156.19;;;24.00;100.00
13015;BME280;6573;57.696;11.950;2022-08-19T10:34:24;101157.47;;;24.10;100.00
13015;BME280;6573;57.696;11.950;2022-08-19T10:36:55;101156.59;;;24.09;100.00
13015;BME280;6573;57.696;11.950;2022-08-19T10:39:29;101155.94;;;24.04;100.00
13015;BME280;6573;57.696;11.950;2022-08-19T10:42:09;101148.47;;;24.11;100.00
13015;BME280;6573;57.696;11.950;2022-08-19T10:44:40;101147.44;;;24.13;100.00
13015;BME280;6573;57.696;11.950;2022-08-19T10:47:08;101127.84;;;24.11;100.00
13015;BME280;6573;57.696;11.950;2022-08-19T10:49:50;101131.16;;;24.16;100.00
13015;BME280;6573;57.696;11.950;2022-08-19T10:52:38;101134.78;;;24.15;100.00
13015;BME280;6573;57.696;11.950;2022-08-19T10:55:19;101139.22;;;24.16;100.00
13015;BME280;6573;57.696;11.950;2022-08-19T10:58:11;101133.94;;;24.30;100.00
13015;BME280;6573;57.696;11.950;2022-08-19T11:00:40;101137.59;;;24.29;100.00
13015;BME280;6573;57.696;11.950;2022-08-19T11:03:09;101131.31;;;24.13;100.00
13015;BME280;6573;57.696;11.950;2022-08-19T11:05:37;101141.34;;;24.10;100.00
13015;BME280;6573;57.696;11.950;2022-08-19T11:08:06;101125.94;;;24.13;100.00
13015;BME280;6573;57.696;11.950;2022-08-19T11:10:51;101136.03;;;24.25;100.00
13015;BME280;6573;57.696;11.950;2022-08-19T11:13:26;101117.97;;;24.27;100.00
13015;BME280;6573;57.696;11.950;2022-08-19T11:15:59;101128.22;;;24.36;100.00
13015;BME280;6573;57.696;11.950;2022-08-19T11:18:34;101125.81;;;24.48;100.00
13015;BME280;6573;57.696;11.950;2022-08-19T11:21:07;101113.16;;;24.50;100.00
13015;BME280;6573;57.696;11.950;2022-08-19T11:23:36;101122.19;;;24.49;100.00
13015;BME280;6573;57.696;11.950;2022-08-19T11:26:06;101104.81;;;24.38;100.00
13015;BME280;6573;57.696;11.950;2022-08-19T11:28:34;101105.25;;;24.46;100.00
13015;BME280;6573;57.696;11.950;2022-08-19T11:31:02;101111.25;;;24.52;100.00
13015;BME280;6573;57.696;11.950;2022-08-19T11:33:31;101111.53;;;24.63;100.00
13015;BME280;6573;57.696;11.950;2022-08-19T11:35:59;101109.38;;;24.85;100.00
13015;BME280;6573;57.696;11.950;2022-08-19T11:38:28;101106.53;;;24.88;100.00
13015;BME280;6573;57.696;11.950;2022-08-19T11:40:58;101111.97;;;25.02;100.00
13015;BME280;6573;57.696;11.950;2022-08-19T11:43:29;101102.84;;;25.04;100.00
13015;BME280;6573;57.696;11.950;2022-08-19T11:46:04;101111.34;;;25.13;100.00
13015;BME280;6573;57.696;11.950;2022-08-19T11:48:35;101109.88;;;24.91;100.00
13015;BME280;6573;57.696;11.950;2022-08-19T11:51:05;101103.22;;;24.83;100.00
13015;BME280;6573;57.696;11.950;2022-08-19T11:53:34;101086.31;;;24.81;100.00
13015;BME280;6573;57.696;11.950;2022-08-19T11:56:03;101105.56;;;24.89;100.00
13015;BME280;6573;57.696;11.950;2022-08-19T11:58:33;101105.47;;;24.90;100.00
13015;BME280;6573;57.696;11.950;2022-08-19T12:01:05;101107.47;;;24.87;100.00
13015;BME280;6573;57.696;11.950;2022-08-19T12:03:34;101102.94;;;25.03;100.00
13015;BME280;6573;57.696;11.950;2022-08-19T12:06:04;101105.22;;;24.95;100.00
13015;BME280;6573;57.696;11.950;2022-08-19T12:08:32;101112.31;;;24.96;100.00
13015;BME280;6573;57.696;11.950;2022-08-19T12:11:01;101110.59;;;24.95;100.00
13015;BME280;6573;57.696;11.950;2022-08-19T12:13:30;101118.41;;;24.99;100.00
13015;BME280;6573;57.696;11.950;2022-08-19T12:16:00;101110.06;;;25.04;100.00
13015;BME280;6573;57.696;11.950;2022-08-19T12:18:28;101104.50;;;25.07;100.00
13015;BME280;6573;57.696;11.950;2022-08-19T12:20:57;101065.78;;;24.94;100.00
13015;BME280;6573;57.696;11.950;2022-08-19T12:23:27;101110.91;;;25.20;100.00
13015;BME280;6573;57.696;11.950;2022-08-19T12:25:55;101107.41;;;25.18;100.00
13015;BME280;6573;57.696;11.950;2022-08-19T12:28:25;101102.56;;;25.25;100.00
13015;BME280;6573;57.696;11.950;2022-08-19T12:30:53;101097.66;;;25.31;100.00
13015;BME280;6573;57.696;11.950;2022-08-19T12:33:23;101094.34;;;25.42;100.00
13015;BME280;6573;57.696;11.950;2022-08-19T12:35:54;101094.75;;;25.20;100.00
13015;BME280;6573;57.696;11.950;2022-08-19T12:38:22;101094.94;;;25.17;100.00
13015;BME280;6573;57.696;11.950;2022-08-19T12:40:51;101081.63;;;25.14;100.00
13015;BME280;6573;57.696;11.950;2022-08-19T12:43:25;101098.03;;;25.25;100.00
13015;BME280;6573;57.696;11.950;2022-08-19T12:45:53;101096.13;;;25.27;100.00
13015;BME280;6573;57.696;11.950;2022-08-19T12:48:23;101090.56;;;25.30;100.00
13015;BME280;6573;57.696;11.950;2022-08-19T12:51:05;101086.13;;;25.29;100.00
13015;BME280;6573;57.696;11.950;2022-08-19T12:53:34;101089.16;;;25.23;100.00
13015;BME280;6573;57.696;11.950;2022-08-19T12:56:05;101093.00;;;25.19;100.00
13015;BME280;6573;57.696;11.950;2022-08-19T12:58:38;101050.00;;;24.88;100.00
13015;BME280;6573;57.696;11.950;2022-08-19T13:01:17;101078.28;;;24.95;100.00
13015;BME280;6573;57.696;11.950;2022-08-19T13:03:50;101076.19;;;25.00;100.00
13015;BME280;6573;57.696;11.950;2022-08-19T13:06:21;101061.06;;;25.13;100.00
13015;BME280;6573;57.696;11.950;2022-08-19T13:08:52;101075.66;;;25.09;100.00